createdAt,value
2023-11-24T00:04:45.525Z,100.00
2023-11-24T00:14:48.763Z,100.00
2023-11-24T00:24:53.377Z,100.00
2023-11-24T00:34:57.775Z,100.00
2023-11-24T00:45:02.543Z,100.00
2023-11-24T00:55:06.787Z,100.00
2023-11-24T01:05:15.456Z,100.00
2023-11-24T01:15:19.042Z,100.00
2023-11-24T01:25:24.140Z,100.00
2023-11-24T01:35:27.292Z,100.00
2023-11-24T01:45:32.876Z,100.00
2023-11-24T01:55:36.614Z,100.00
2023-11-24T02:05:41.407Z,100.00
2023-11-24T02:15:45.681Z,100.00
2023-11-24T02:25:50.351Z,100.00
2023-11-24T02:35:55.343Z,100.00
2023-11-24T02:45:59.689Z,100.00
2023-11-24T02:56:02.738Z,100.00
2023-11-24T03:06:07.668Z,100.00
2023-11-24T03:16:12.066Z,100.00
2023-11-24T03:26:16.403Z,99.91
2023-11-24T03:36:19.819Z,98.27
2023-11-24T03:46:24.618Z,97.82
2023-11-24T03:56:28.025Z,97.96
2023-11-24T04:06:32.577Z,97.89
2023-11-24T04:16:35.745Z,97.17
2023-11-24T04:26:40.377Z,96.26
2023-11-24T04:36:43.738Z,95.50
2023-11-24T04:46:48.355Z,95.01
2023-11-24T04:56:51.740Z,95.74
2023-11-24T05:06:56.277Z,95.81
2023-11-24T05:17:01.028Z,95.56
2023-11-24T05:27:06.441Z,95.98
2023-11-24T05:37:10.993Z,95.95
2023-11-24T05:47:15.747Z,96.43
2023-11-24T05:57:19.776Z,96.71
2023-11-24T06:07:25.859Z,96.74
2023-11-24T06:17:29.134Z,95.91
2023-11-24T06:27:34.161Z,95.54
2023-11-24T06:37:37.228Z,95.32
2023-11-24T06:47:42.356Z,95.75
2023-11-24T06:57:45.586Z,95.36
2023-11-24T07:07:50.308Z,95.90
2023-11-24T07:17:53.677Z,95.91
2023-11-24T07:27:58.303Z,100.00
2023-11-24T07:38:02.175Z,100.00
2023-11-24T07:48:08.407Z,100.00
2023-11-24T07:58:12.803Z,100.00
2023-11-24T08:08:17.917Z,100.00
2023-11-24T08:18:22.554Z,100.00
2023-11-24T08:28:27.448Z,100.00
2023-11-24T08:38:30.863Z,100.00
2023-11-24T08:48:35.947Z,100.00
2023-11-24T08:58:40.116Z,100.00
2023-11-24T09:08:46.557Z,100.00
2023-11-24T09:18:50.802Z,100.00
2023-11-24T09:28:56.250Z,100.00
2023-11-24T09:38:59.911Z,100.00
2023-11-24T09:49:06.917Z,100.00
2023-11-24T09:59:10.878Z,100.00
2023-11-24T10:09:26.619Z,100.00
2023-11-24T10:19:29.879Z,100.00
2023-11-24T10:29:36.085Z,100.00
2023-11-24T10:39:45.391Z,99.78
2023-11-24T10:50:11.251Z,98.92
2023-11-24T11:00:21.366Z,99.74
2023-11-24T11:11:16.442Z,95.57
2023-11-24T11:21:41.081Z,96.34
2023-11-24T11:31:47.975Z,94.15
2023-11-24T11:41:54.382Z,94.26
2023-11-24T11:52:05.498Z,95.83
2023-11-24T12:02:15.957Z,96.13
2023-11-24T12:12:24.406Z,92.71
2023-11-24T12:22:31.457Z,94.05
2023-11-24T12:32:34.708Z,94.44
2023-11-24T12:42:39.653Z,95.83
2023-11-24T12:52:45.379Z,97.63
2023-11-24T13:02:50.688Z,99.11
2023-11-24T13:12:55.506Z,99.98
2023-11-24T13:23:01.085Z,99.30
2023-11-24T13:33:05.937Z,98.57
2023-11-24T13:43:12.148Z,95.89
2023-11-24T13:53:16.130Z,91.44
2023-11-24T14:03:20.854Z,90.11
2023-11-24T14:13:24.421Z,89.19
2023-11-24T14:23:31.146Z,89.14
2023-11-24T14:33:35.213Z,90.86
2023-11-24T14:43:40.134Z,91.21
2023-11-24T14:53:43.356Z,91.01
2023-11-24T15:03:50.074Z,90.96
2023-11-24T15:13:55.031Z,90.46
2023-11-24T15:23:59.818Z,88.51
2023-11-24T15:34:03.542Z,87.95
2023-11-24T15:44:11.677Z,88.56
2023-11-24T15:54:16.416Z,90.80
2023-11-24T16:04:22.921Z,93.51
2023-11-24T16:14:27.295Z,93.35
2023-11-24T16:24:32.657Z,94.30
2023-11-24T16:34:37.006Z,94.74
2023-11-24T16:44:41.986Z,95.97
2023-11-24T16:54:45.312Z,97.00
2023-11-24T17:04:49.716Z,100.00
2023-11-24T17:14:53.289Z,100.00
2023-11-24T17:24:58.152Z,100.00
2023-11-24T17:35:01.899Z,100.00
2023-11-24T17:45:16.162Z,100.00
2023-11-24T17:55:20.232Z,100.00
2023-11-24T18:05:24.834Z,100.00
2023-11-24T18:15:28.509Z,100.00
2023-11-24T18:25:36.247Z,100.00
2023-11-24T18:35:40.384Z,100.00
2023-11-24T18:45:45.315Z,100.00
2023-11-24T18:55:48.818Z,100.00
2023-11-24T19:05:53.854Z,100.00
2023-11-24T19:15:58.324Z,100.00
2023-11-24T19:26:03.038Z,100.00
2023-11-24T19:36:07.275Z,100.00
2023-11-24T19:46:11.814Z,100.00
2023-11-24T19:56:16.201Z,100.00
2023-11-24T20:06:21.197Z,100.00
2023-11-24T20:16:24.837Z,100.00
2023-11-24T20:26:29.471Z,100.00
2023-11-24T20:36:35.117Z,100.00
2023-11-24T20:46:40.730Z,100.00
2023-11-24T20:56:45.859Z,100.00
2023-11-24T21:06:50.773Z,100.00
2023-11-24T21:16:55.079Z,100.00
2023-11-24T21:27:02.026Z,100.00
2023-11-24T21:37:07.427Z,100.00
2023-11-24T21:47:12.380Z,100.00
2023-11-24T21:57:16.196Z,100.00
2023-11-24T22:07:24.019Z,100.00
2023-11-24T22:17:28.169Z,100.00
2023-11-24T22:27:33.505Z,100.00
2023-11-24T22:37:36.968Z,100.00
2023-11-24T22:47:43.603Z,100.00
2023-11-24T22:57:47.417Z,100.00
2023-11-24T23:07:53.207Z,100.00
2023-11-24T23:17:57.127Z,100.00
2023-11-24T23:28:02.020Z,100.00
2023-11-24T23:38:05.703Z,100.00
2023-11-24T23:48:11.031Z,100.00
2023-11-24T23:58:14.276Z,100.00
